sensor_id;sensor_type;location;lat;lon;timestamp;temperature;humidity
51914;DHT22;37940;53.002;6.930;2022-08-04T00:01:38;21.00;99.90
51914;DHT22;37940;53.002;6.930;2022-08-04T00:04:13;20.90;99.90
51914;DHT22;37940;53.002;6.930;2022-08-04T00:09:31;20.90;99.90
51914;DHT22;37940;53.002;6.930;2022-08-04T00:12:02;20.90;99.90
51914;DHT22;37940;53.002;6.930;2022-08-04T00:14:34;20.90;99.90
51914;DHT22;37940;53.002;6.930;2022-08-04T00:17:05;20.90;99.90
51914;DHT22;37940;53.002;6.930;2022-08-04T00:19:43;20.90;99.90
51914;DHT22;37940;53.002;6.930;2022-08-04T00:22:12;20.90;99.90
51914;DHT22;37940;53.002;6.930;2022-08-04T00:24:38;20.80;99.90
51914;DHT22;37940;53.002;6.930;2022-08-04T00:27:06;20.80;99.90
51914;DHT22;37940;53.002;6.930;2022-08-04T00:29:33;20.80;99.90
51914;DHT22;37940;53.002;6.930;2022-08-04T00:32:02;20.80;99.90
51914;DHT22;37940;53.002;6.930;2022-08-04T00:34:30;20.80;99.90
51914;DHT22;37940;53.002;6.930;2022-08-04T00:36:56;20.70;99.90
51914;DHT22;37940;53.002;6.930;2022-08-04T00:39:23;20.70;99.90
51914;DHT22;37940;53.002;6.930;2022-08-04T00:48:11;20.60;99.90
51914;DHT22;37940;53.002;6.930;2022-08-04T00:50:52;20.60;99.90
51914;DHT22;37940;53.002;6.930;2022-08-04T00:56:01;20.60;99.90
51914;DHT22;37940;53.002;6.930;2022-08-04T00:58:46;20.50;99.90
51914;DHT22;37940;53.002;6.930;2022-08-04T01:04:23;20.50;99.90
51914;DHT22;37940;53.002;6.930;2022-08-04T01:12:35;20.50;99.90
51914;DHT22;37940;53.002;6.930;2022-08-04T01:15:06;20.50;99.90
51914;DHT22;37940;53.002;6.930;2022-08-04T01:20:04;20.50;99.90
51914;DHT22;37940;53.002;6.930;2022-08-04T01:30:32;20.40;99.90
51914;DHT22;37940;53.002;6.930;2022-08-04T01:33:08;20.30;99.90
51914;DHT22;37940;53.002;6.930;2022-08-04T01:35:44;20.30;99.90
51914;DHT22;37940;53.002;6.930;2022-08-04T01:38:28;20.30;99.90
51914;DHT22;37940;53.002;6.930;2022-08-04T01:41:07;20.20;99.90
51914;DHT22;37940;53.002;6.930;2022-08-04T01:43:40;20.20;99.90
51914;DHT22;37940;53.002;6.930;2022-08-04T01:46:10;20.10;99.90
51914;DHT22;37940;53.002;6.930;2022-08-04T01:48:38;20.10;99.90
51914;DHT22;37940;53.002;6.930;2022-08-04T01:51:06;20.00;99.90
51914;DHT22;37940;53.002;6.930;2022-08-04T01:53:37;20.10;99.90
51914;DHT22;37940;53.002;6.930;2022-08-04T01:56:05;20.00;99.90
51914;DHT22;37940;53.002;6.930;2022-08-04T01:58:33;20.00;99.90
51914;DHT22;37940;53.002;6.930;2022-08-04T02:01:08;20.00;99.90
51914;DHT22;37940;53.002;6.930;2022-08-04T02:03:38;19.90;99.90
51914;DHT22;37940;53.002;6.930;2022-08-04T02:11:33;19.70;99.90
51914;DHT22;37940;53.002;6.930;2022-08-04T02:14:12;19.60;99.90
51914;DHT22;37940;53.002;6.930;2022-08-04T02:17:11;19.50;99.90
51914;DHT22;37940;53.002;6.930;2022-08-04T02:22:20;19.40;99.90
51914;DHT22;37940;53.002;6.930;2022-08-04T02:24:49;19.40;99.90
51914;DHT22;37940;53.002;6.930;2022-08-04T02:27:26;19.30;99.90
51914;DHT22;37940;53.002;6.930;2022-08-04T02:29:59;19.30;99.90
51914;DHT22;37940;53.002;6.930;2022-08-04T02:32:35;19.20;99.90
51914;DHT22;37940;53.002;6.930;2022-08-04T02:35:24;19.20;99.90
51914;DHT22;37940;53.002;6.930;2022-08-04T02:40:45;19.10;99.90
51914;DHT22;37940;53.002;6.930;2022-08-04T02:43:12;19.10;99.90
51914;DHT22;37940;53.002;6.930;2022-08-04T02:45:41;19.00;99.90
51914;DHT22;37940;53.002;6.930;2022-08-04T02:48:09;19.00;99.90
51914;DHT22;37940;53.002;6.930;2022-08-04T02:50:36;18.90;99.90
51914;DHT22;37940;53.002;6.930;2022-08-04T02:53:04;18.90;99.90
51914;DHT22;37940;53.002;6.930;2022-08-04T02:55:30;18.80;99.90
51914;DHT22;37940;53.002;6.930;2022-08-04T02:57:57;18.80;99.90
51914;DHT22;37940;53.002;6.930;2022-08-04T03:00:25;18.70;99.90
51914;DHT22;37940;53.002;6.930;2022-08-04T03:05:36;18.60;99.90
51914;DHT22;37940;53.002;6.930;2022-08-04T03:08:54;18.60;99.90
51914;DHT22;37940;53.002;6.930;2022-08-04T03:14:04;18.50;99.90
51914;DHT22;37940;53.002;6.930;2022-08-04T03:33:58;18.10;99.90
51914;DHT22;37940;53.002;6.930;2022-08-04T03:46:14;18.00;99.90
51914;DHT22;37940;53.002;6.930;2022-08-04T04:19:03;18.00;99.90
51914;DHT22;37940;53.002;6.930;2022-08-04T04:30:24;18.00;99.90
51914;DHT22;37940;53.002;6.930;2022-08-04T04:33:08;18.10;99.90
51914;DHT22;37940;53.002;6.930;2022-08-04T04:44:10;18.30;99.90
51914;DHT22;37940;53.002;6.930;2022-08-04T04:46:49;18.30;99.90
51914;DHT22;37940;53.002;6.930;2022-08-04T04:51:57;18.40;99.90
51914;DHT22;37940;53.002;6.930;2022-08-04T04:54:52;18.40;99.90
51914;DHT22;37940;53.002;6.930;2022-08-04T04:57:22;18.50;99.90
51914;DHT22;37940;53.002;6.930;2022-08-04T04:59:55;18.60;99.90
51914;DHT22;37940;53.002;6.930;2022-08-04T05:13:36;18.90;99.90
51914;DHT22;37940;53.002;6.930;2022-08-04T05:16:19;18.90;99.90
51914;DHT22;37940;53.002;6.930;2022-08-04T05:18:52;19.00;99.90
51914;DHT22;37940;53.002;6.930;2022-08-04T05:21:36;19.00;99.90
51914;DHT22;37940;53.002;6.930;2022-08-04T05:24:07;19.10;99.90
51914;DHT22;37940;53.002;6.930;2022-08-04T05:26:38;19.30;99.90
51914;DHT22;37940;53.002;6.930;2022-08-04T05:29:10;19.40;99.90
51914;DHT22;37940;53.002;6.930;2022-08-04T05:31:41;19.60;99.90
51914;DHT22;37940;53.002;6.930;2022-08-04T05:34:13;19.70;99.90
51914;DHT22;37940;53.002;6.930;2022-08-04T05:36:47;20.10;99.90
51914;DHT22;37940;53.002;6.930;2022-08-04T05:39:51;20.50;99.90
51914;DHT22;37940;53.002;6.930;2022-08-04T05:42:19;21.10;99.90
51914;DHT22;37940;53.002;6.930;2022-08-04T05:44:45;21.60;99.90
51914;DHT22;37940;53.002;6.930;2022-08-04T05:47:11;21.90;99.90
51914;DHT22;37940;53.002;6.930;2022-08-04T05:49:39;22.70;99.90
51914;DHT22;37940;53.002;6.930;2022-08-04T05:52:07;23.60;99.90
51914;DHT22;37940;53.002;6.930;2022-08-04T05:54:34;24.20;99.90
51914;DHT22;37940;53.002;6.930;2022-08-04T05:57:05;24.70;99.90
51914;DHT22;37940;53.002;6.930;2022-08-04T05:59:32;25.40;99.90
51914;DHT22;37940;53.002;6.930;2022-08-04T06:01:59;25.80;99.90
51914;DHT22;37940;53.002;6.930;2022-08-04T06:04:37;25.80;99.90
51914;DHT22;37940;53.002;6.930;2022-08-04T06:07:04;25.50;99.90
51914;DHT22;37940;53.002;6.930;2022-08-04T06:09:30;25.10;99.90
51914;DHT22;37940;53.002;6.930;2022-08-04T06:11:59;24.80;99.90
51914;DHT22;37940;53.002;6.930;2022-08-04T06:14:25;24.50;99.90
51914;DHT22;37940;53.002;6.930;2022-08-04T06:16:52;24.40;99.90
51914;DHT22;37940;53.002;6.930;2022-08-04T06:19:20;24.10;99.90
51914;DHT22;37940;53.002;6.930;2022-08-04T06:21:52;23.90;99.90
51914;DHT22;37940;53.002;6.930;2022-08-04T06:24:20;23.70;99.90
51914;DHT22;37940;53.002;6.930;2022-08-04T06:26:49;23.50;99.90
51914;DHT22;37940;53.002;6.930;2022-08-04T06:29:17;23.40;99.90
51914;DHT22;37940;53.002;6.930;2022-08-04T06:31:53;23.30;99.90
51914;DHT22;37940;53.002;6.930;2022-08-04T06:34:28;23.20;99.90
51914;DHT22;37940;53.002;6.930;2022-08-04T06:36:55;23.10;99.90
51914;DHT22;37940;53.002;6.930;2022-08-04T06:39:23;23.10;99.90
51914;DHT22;37940;53.002;6.930;2022-08-04T06:41:52;23.20;99.90
51914;DHT22;37940;53.002;6.930;2022-08-04T06:44:19;23.20;99.90
51914;DHT22;37940;53.002;6.930;2022-08-04T06:46:46;23.30;99.90
51914;DHT22;37940;53.002;6.930;2022-08-04T06:49:13;23.40;99.90
51914;DHT22;37940;53.002;6.930;2022-08-04T06:51:39;23.40;99.90
51914;DHT22;37940;53.002;6.930;2022-08-04T06:54:06;23.50;99.90
51914;DHT22;37940;53.002;6.930;2022-08-04T06:56:33;23.60;99.90
51914;DHT22;37940;53.002;6.930;2022-08-04T06:59:03;23.60;99.90
51914;DHT22;37940;53.002;6.930;2022-08-04T07:01:31;23.60;99.90
51914;DHT22;37940;53.002;6.930;2022-08-04T07:03:58;23.70;99.90
51914;DHT22;37940;53.002;6.930;2022-08-04T07:06:23;23.70;99.90
51914;DHT22;37940;53.002;6.930;2022-08-04T07:08:50;23.70;99.90
51914;DHT22;37940;53.002;6.930;2022-08-04T07:11:16;23.90;99.90
51914;DHT22;37940;53.002;6.930;2022-08-04T07:13:44;23.90;99.90
51914;DHT22;37940;53.002;6.930;2022-08-04T07:16:13;24.10;99.90
51914;DHT22;37940;53.002;6.930;2022-08-04T07:18:39;24.30;99.90
51914;DHT22;37940;53.002;6.930;2022-08-04T07:21:05;24.50;99.90
51914;DHT22;37940;53.002;6.930;2022-08-04T07:23:31;24.60;99.90
51914;DHT22;37940;53.002;6.930;2022-08-04T07:25:57;24.70;99.90
51914;DHT22;37940;53.002;6.930;2022-08-04T07:28:28;24.70;99.90
51914;DHT22;37940;53.002;6.930;2022-08-04T07:30:55;24.70;99.90
51914;DHT22;37940;53.002;6.930;2022-08-04T07:33:22;24.80;99.90
51914;DHT22;37940;53.002;6.930;2022-08-04T07:35:52;24.90;99.90
51914;DHT22;37940;53.002;6.930;2022-08-04T07:38:18;25.00;99.90
51914;DHT22;37940;53.002;6.930;2022-08-04T07:40:44;25.00;99.90
51914;DHT22;37940;53.002;6.930;2022-08-04T07:43:10;25.10;99.90
51914;DHT22;37940;53.002;6.930;2022-08-04T07:45:36;25.10;99.90
51914;DHT22;37940;53.002;6.930;2022-08-04T07:48:02;25.10;99.90
51914;DHT22;37940;53.002;6.930;2022-08-04T07:50:30;25.20;99.90
51914;DHT22;37940;53.002;6.930;2022-08-04T07:52:56;25.40;99.90
51914;DHT22;37940;53.002;6.930;2022-08-04T07:55:22;25.50;99.90
51914;DHT22;37940;53.002;6.930;2022-08-04T07:57:48;25.50;99.90
51914;DHT22;37940;53.002;6.930;2022-08-04T08:00:14;25.50;99.90
51914;DHT22;37940;53.002;6.930;2022-08-04T08:02:41;25.50;99.90
51914;DHT22;37940;53.002;6.930;2022-08-04T08:05:15;25.50;99.90
51914;DHT22;37940;53.002;6.930;2022-08-04T08:07:47;25.60;99.90
51914;DHT22;37940;53.002;6.930;2022-08-04T08:10:13;25.70;99.90
51914;DHT22;37940;53.002;6.930;2022-08-04T08:12:41;25.90;99.90
51914;DHT22;37940;53.002;6.930;2022-08-04T08:15:09;26.00;99.90
51914;DHT22;37940;53.002;6.930;2022-08-04T08:17:37;26.10;99.90
51914;DHT22;37940;53.002;6.930;2022-08-04T08:20:04;26.30;99.90
51914;DHT22;37940;53.002;6.930;2022-08-04T08:22:31;26.50;99.90
51914;DHT22;37940;53.002;6.930;2022-08-04T08:24:57;26.60;99.90
51914;DHT22;37940;53.002;6.930;2022-08-04T08:27:23;26.70;99.90
51914;DHT22;37940;53.002;6.930;2022-08-04T08:29:49;26.80;99.90
51914;DHT22;37940;53.002;6.930;2022-08-04T08:32:15;27.00;99.90
51914;DHT22;37940;53.002;6.930;2022-08-04T08:34:41;27.20;99.90
51914;DHT22;37940;53.002;6.930;2022-08-04T08:54:36;28.50;99.90
51914;DHT22;37940;53.002;6.930;2022-08-04T09:08:54;29.10;99.90
51914;DHT22;37940;53.002;6.930;2022-08-04T09:11:32;29.10;99.90
51914;DHT22;37940;53.002;6.930;2022-08-04T09:14:15;29.20;99.90
51914;DHT22;37940;53.002;6.930;2022-08-04T09:16:48;29.30;99.90
51914;DHT22;37940;53.002;6.930;2022-08-04T09:22:17;29.50;99.90
51914;DHT22;37940;53.002;6.930;2022-08-04T09:30:15;30.00;99.90
51914;DHT22;37940;53.002;6.930;2022-08-04T09:35:41;30.40;99.90
51914;DHT22;37940;53.002;6.930;2022-08-04T09:38:34;30.60;99.90
51914;DHT22;37940;53.002;6.930;2022-08-04T09:41:40;30.70;99.90
51914;DHT22;37940;53.002;6.930;2022-08-04T09:44:32;30.80;99.90
51914;DHT22;37940;53.002;6.930;2022-08-04T09:50:03;30.80;99.90
51914;DHT22;37940;53.002;6.930;2022-08-04T10:01:10;31.40;99.90
51914;DHT22;37940;53.002;6.930;2022-08-04T10:03:41;31.50;99.90
51914;DHT22;37940;53.002;6.930;2022-08-04T10:06:22;31.50;99.90
51914;DHT22;37940;53.002;6.930;2022-08-04T10:11:54;31.70;98.90
51914;DHT22;37940;53.002;6.930;2022-08-04T10:14:51;31.70;99.10
51914;DHT22;37940;53.002;6.930;2022-08-04T10:25:48;31.20;99.20
51914;DHT22;37940;53.002;6.930;2022-08-04T10:28:19;31.10;99.10
51914;DHT22;37940;53.002;6.930;2022-08-04T10:30:56;31.00;99.20
51914;DHT22;37940;53.002;6.930;2022-08-04T10:33:41;31.00;99.50
51914;DHT22;37940;53.002;6.930;2022-08-04T10:36:09;31.00;99.90
51914;DHT22;37940;53.002;6.930;2022-08-04T10:38:49;31.00;99.90
51914;DHT22;37940;53.002;6.930;2022-08-04T10:47:06;31.30;99.60
51914;DHT22;37940;53.002;6.930;2022-08-04T10:49:55;31.40;99.90
51914;DHT22;37940;53.002;6.930;2022-08-04T10:52:37;31.10;99.90
51914;DHT22;37940;53.002;6.930;2022-08-04T10:55:22;30.90;99.90
51914;DHT22;37940;53.002;6.930;2022-08-04T10:58:00;30.80;99.90
51914;DHT22;37940;53.002;6.930;2022-08-04T11:00:28;30.80;99.90
51914;DHT22;37940;53.002;6.930;2022-08-04T11:03:22;30.80;99.90
51914;DHT22;37940;53.002;6.930;2022-08-04T11:08:24;31.00;99.90
51914;DHT22;37940;53.002;6.930;2022-08-04T11:13:22;31.10;99.90
51914;DHT22;37940;53.002;6.930;2022-08-04T11:15:53;31.10;99.90
51914;DHT22;37940;53.002;6.930;2022-08-04T11:21:27;31.10;99.90
51914;DHT22;37940;53.002;6.930;2022-08-04T11:24:03;30.90;99.90
51914;DHT22;37940;53.002;6.930;2022-08-04T11:29:18;30.80;99.90
51914;DHT22;37940;53.002;6.930;2022-08-04T11:31:48;31.00;99.90
51914;DHT22;37940;53.002;6.930;2022-08-04T11:34:21;31.10;99.90
51914;DHT22;37940;53.002;6.930;2022-08-04T11:39:26;31.20;99.80
51914;DHT22;37940;53.002;6.930;2022-08-04T11:42:00;31.20;99.50
51914;DHT22;37940;53.002;6.930;2022-08-04T11:44:42;31.20;99.40
51914;DHT22;37940;53.002;6.930;2022-08-04T11:47:50;31.10;99.40
51914;DHT22;37940;53.002;6.930;2022-08-04T11:52:58;30.80;99.90
51914;DHT22;37940;53.002;6.930;2022-08-04T11:55:26;30.80;99.20
51914;DHT22;37940;53.002;6.930;2022-08-04T11:57:53;30.80;99.20
51914;DHT22;37940;53.002;6.930;2022-08-04T12:00:20;30.80;98.90
51914;DHT22;37940;53.002;6.930;2022-08-04T12:03:14;30.60;98.80
51914;DHT22;37940;53.002;6.930;2022-08-04T12:06:12;30.30;99.20
51914;DHT22;37940;53.002;6.930;2022-08-04T12:09:06;30.10;99.20
51914;DHT22;37940;53.002;6.930;2022-08-04T12:11:39;29.60;98.00
51914;DHT22;37940;53.002;6.930;2022-08-04T12:14:42;29.30;98.30
51914;DHT22;37940;53.002;6.930;2022-08-04T12:17:10;29.00;98.20
51914;DHT22;37940;53.002;6.930;2022-08-04T12:22:16;28.60;99.60
51914;DHT22;37940;53.002;6.930;2022-08-04T12:25:15;28.50;99.90
51914;DHT22;37940;53.002;6.930;2022-08-04T12:30:53;28.20;99.90
51914;DHT22;37940;53.002;6.930;2022-08-04T12:33:23;28.20;99.90
51914;DHT22;37940;53.002;6.930;2022-08-04T12:36:04;28.10;99.90
51914;DHT22;37940;53.002;6.930;2022-08-04T12:38:34;28.00;99.90
51914;DHT22;37940;53.002;6.930;2022-08-04T12:41:01;27.90;99.90
51914;DHT22;37940;53.002;6.930;2022-08-04T12:43:40;27.90;99.90
51914;DHT22;37940;53.002;6.930;2022-08-04T12:46:23;27.80;99.90
51914;DHT22;37940;53.002;6.930;2022-08-04T12:48:50;27.70;99.90
51914;DHT22;37940;53.002;6.930;2022-08-04T12:51:17;27.50;99.90
51914;DHT22;37940;53.002;6.930;2022-08-04T12:53:45;27.40;99.90
51914;DHT22;37940;53.002;6.930;2022-08-04T12:56:13;27.20;99.90
51914;DHT22;37940;53.002;6.930;2022-08-04T12:58:43;27.00;99.90
51914;DHT22;37940;53.002;6.930;2022-08-04T13:01:20;27.00;99.90
51914;DHT22;37940;53.002;6.930;2022-08-04T13:03:52;26.80;99.90
51914;DHT22;37940;53.002;6.930;2022-08-04T13:06:28;26.60;99.90
51914;DHT22;37940;53.002;6.930;2022-08-04T13:08:55;26.40;99.90
51914;DHT22;37940;53.002;6.930;2022-08-04T13:11:26;26.30;99.90
51914;DHT22;37940;53.002;6.930;2022-08-04T13:13:54;26.20;99.90
51914;DHT22;37940;53.002;6.930;2022-08-04T13:16:30;26.10;99.90
51914;DHT22;37940;53.002;6.930;2022-08-04T13:18:56;26.00;99.90
51914;DHT22;37940;53.002;6.930;2022-08-04T13:21:25;26.00;99.90
51914;DHT22;37940;53.002;6.930;2022-08-04T13:23:56;26.00;99.90
51914;DHT22;37940;53.002;6.930;2022-08-04T13:26:23;26.10;99.90
51914;DHT22;37940;53.002;6.930;2022-08-04T13:28:52;26.20;99.90
51914;DHT22;37940;53.002;6.930;2022-08-04T13:31:20;26.30;99.90
51914;DHT22;37940;53.002;6.930;2022-08-04T13:33:49;26.40;99.90
51914;DHT22;37940;53.002;6.930;2022-08-04T13:36:16;26.50;99.90
51914;DHT22;37940;53.002;6.930;2022-08-04T13:38:53;26.70;99.90
51914;DHT22;37940;53.002;6.930;2022-08-04T13:41:20;26.70;99.90
51914;DHT22;37940;53.002;6.930;2022-08-04T13:43:55;26.80;99.90
51914;DHT22;37940;53.002;6.930;2022-08-04T13:46:25;27.10;99.90
51914;DHT22;37940;53.002;6.930;2022-08-04T13:48:51;27.40;99.90
51914;DHT22;37940;53.002;6.930;2022-08-04T13:51:19;27.70;99.90
51914;DHT22;37940;53.002;6.930;2022-08-04T13:53:55;27.90;99.90
51914;DHT22;37940;53.002;6.930;2022-08-04T13:56:21;27.80;99.90
51914;DHT22;37940;53.002;6.930;2022-08-04T13:58:53;27.70;99.90
51914;DHT22;37940;53.002;6.930;2022-08-04T14:01:23;27.80;99.90
51914;DHT22;37940;53.002;6.930;2022-08-04T14:04:03;27.80;99.90
51914;DHT22;37940;53.002;6.930;2022-08-04T14:06:35;28.00;99.90
51914;DHT22;37940;53.002;6.930;2022-08-04T14:09:13;28.00;99.90
51914;DHT22;37940;53.002;6.930;2022-08-04T14:11:44;28.10;99.90
51914;DHT22;37940;53.002;6.930;2022-08-04T14:14:28;28.20;99.90
51914;DHT22;37940;53.002;6.930;2022-08-04T14:17:08;28.20;99.90
51914;DHT22;37940;53.002;6.930;2022-08-04T14:19:55;28.20;99.90
51914;DHT22;37940;53.002;6.930;2022-08-04T14:25:12;28.10;99.90
51914;DHT22;37940;53.002;6.930;2022-08-04T14:27:55;28.10;99.90
51914;DHT22;37940;53.002;6.930;2022-08-04T14:30:32;28.10;99.90
51914;DHT22;37940;53.002;6.930;2022-08-04T14:33:08;28.10;99.90
51914;DHT22;37940;53.002;6.930;2022-08-04T14:35:35;28.20;99.90
51914;DHT22;37940;53.002;6.930;2022-08-04T14:38:07;28.20;99.90
51914;DHT22;37940;53.002;6.930;2022-08-04T14:40:35;28.10;99.90
51914;DHT22;37940;53.002;6.930;2022-08-04T14:43:02;28.00;99.90
51914;DHT22;37940;53.002;6.930;2022-08-04T14:45:39;28.00;99.90
51914;DHT22;37940;53.002;6.930;2022-08-04T14:48:09;28.10;99.90
51914;DHT22;37940;53.002;6.930;2022-08-04T14:50:40;28.10;99.90
51914;DHT22;37940;53.002;6.930;2022-08-04T14:53:15;28.20;99.90
51914;DHT22;37940;53.002;6.930;2022-08-04T14:55:46;28.20;99.90
51914;DHT22;37940;53.002;6.930;2022-08-04T14:58:22;28.20;99.90
51914;DHT22;37940;53.002;6.930;2022-08-04T15:00:50;28.20;99.90
51914;DHT22;37940;53.002;6.930;2022-08-04T15:03:18;28.00;99.90
51914;DHT22;37940;53.002;6.930;2022-08-04T15:05:45;27.90;99.90
51914;DHT22;37940;53.002;6.930;2022-08-04T15:08:12;27.70;99.90
51914;DHT22;37940;53.002;6.930;2022-08-04T15:10:40;27.60;99.90
51914;DHT22;37940;53.002;6.930;2022-08-04T15:13:06;27.60;99.90
51914;DHT22;37940;53.002;6.930;2022-08-04T15:15:33;27.50;99.90
51914;DHT22;37940;53.002;6.930;2022-08-04T15:17:59;27.50;99.90
51914;DHT22;37940;53.002;6.930;2022-08-04T15:20:25;27.50;99.90
51914;DHT22;37940;53.002;6.930;2022-08-04T15:22:51;27.50;99.90
51914;DHT22;37940;53.002;6.930;2022-08-04T15:25:17;27.50;99.90
51914;DHT22;37940;53.002;6.930;2022-08-04T15:27:46;27.60;99.90
51914;DHT22;37940;53.002;6.930;2022-08-04T15:30:14;27.80;99.90
51914;DHT22;37940;53.002;6.930;2022-08-04T15:32:46;27.90;99.90
51914;DHT22;37940;53.002;6.930;2022-08-04T15:35:18;27.80;99.90
51914;DHT22;37940;53.002;6.930;2022-08-04T15:40:47;27.40;99.90
51914;DHT22;37940;53.002;6.930;2022-08-04T15:53:29;26.90;99.90
51914;DHT22;37940;53.002;6.930;2022-08-04T15:55:56;27.00;99.90
51914;DHT22;37940;53.002;6.930;2022-08-04T15:58:22;26.90;99.90
51914;DHT22;37940;53.002;6.930;2022-08-04T16:18:55;25.80;99.90
51914;DHT22;37940;53.002;6.930;2022-08-04T16:21:29;25.70;99.90
51914;DHT22;37940;53.002;6.930;2022-08-04T16:26:48;25.80;99.90
51914;DHT22;37940;53.002;6.930;2022-08-04T16:29:33;25.80;99.90
51914;DHT22;37940;53.002;6.930;2022-08-04T16:37:06;25.50;99.90
51914;DHT22;37940;53.002;6.930;2022-08-04T16:39:33;25.30;99.90
51914;DHT22;37940;53.002;6.930;2022-08-04T16:41:59;25.00;99.90
51914;DHT22;37940;53.002;6.930;2022-08-04T16:44:34;24.80;99.90
51914;DHT22;37940;53.002;6.930;2022-08-04T16:47:04;24.60;99.90
51914;DHT22;37940;53.002;6.930;2022-08-04T16:49:31;24.40;99.90
51914;DHT22;37940;53.002;6.930;2022-08-04T16:54:35;24.30;99.90
51914;DHT22;37940;53.002;6.930;2022-08-04T16:57:08;24.20;99.90
51914;DHT22;37940;53.002;6.930;2022-08-04T16:59:34;24.10;99.90
51914;DHT22;37940;53.002;6.930;2022-08-04T17:02:00;24.20;99.90
51914;DHT22;37940;53.002;6.930;2022-08-04T17:04:31;24.20;99.90
51914;DHT22;37940;53.002;6.930;2022-08-04T17:07:01;24.10;99.90
51914;DHT22;37940;53.002;6.930;2022-08-04T17:09:28;24.20;99.90
51914;DHT22;37940;53.002;6.930;2022-08-04T17:11:55;24.10;99.90
51914;DHT22;37940;53.002;6.930;2022-08-04T17:14:27;24.00;99.90
51914;DHT22;37940;53.002;6.930;2022-08-04T17:16:55;24.00;99.90
51914;DHT22;37940;53.002;6.930;2022-08-04T17:19:21;24.00;99.90
51914;DHT22;37940;53.002;6.930;2022-08-04T17:21:49;23.90;99.90
51914;DHT22;37940;53.002;6.930;2022-08-04T17:24:15;23.80;99.90
51914;DHT22;37940;53.002;6.930;2022-08-04T17:26:41;23.70;99.90
51914;DHT22;37940;53.002;6.930;2022-08-04T17:29:07;23.50;99.90
51914;DHT22;37940;53.002;6.930;2022-08-04T17:31:36;23.50;99.90
51914;DHT22;37940;53.002;6.930;2022-08-04T17:34:13;23.40;99.90
51914;DHT22;37940;53.002;6.930;2022-08-04T17:36:40;23.40;99.90
51914;DHT22;37940;53.002;6.930;2022-08-04T17:39:15;23.30;99.90
51914;DHT22;37940;53.002;6.930;2022-08-04T17:41:43;23.20;99.90
51914;DHT22;37940;53.002;6.930;2022-08-04T17:44:09;23.20;99.90
51914;DHT22;37940;53.002;6.930;2022-08-04T17:46:36;23.20;99.90
51914;DHT22;37940;53.002;6.930;2022-08-04T17:51:45;23.20;99.90
51914;DHT22;37940;53.002;6.930;2022-08-04T17:54:16;23.20;99.90
51914;DHT22;37940;53.002;6.930;2022-08-04T17:56:48;23.10;99.90
51914;DHT22;37940;53.002;6.930;2022-08-04T17:59:27;23.10;99.90
51914;DHT22;37940;53.002;6.930;2022-08-04T18:02:00;23.00;99.90
51914;DHT22;37940;53.002;6.930;2022-08-04T18:04:31;22.80;99.90
51914;DHT22;37940;53.002;6.930;2022-08-04T18:12:41;22.70;99.90
51914;DHT22;37940;53.002;6.930;2022-08-04T18:15:21;22.70;99.90
51914;DHT22;37940;53.002;6.930;2022-08-04T18:17:49;22.70;99.90
51914;DHT22;37940;53.002;6.930;2022-08-04T18:20:17;22.70;99.90
51914;DHT22;37940;53.002;6.930;2022-08-04T18:22:48;22.60;99.90
51914;DHT22;37940;53.002;6.930;2022-08-04T18:25:16;22.50;99.90
51914;DHT22;37940;53.002;6.930;2022-08-04T18:30:16;22.20;99.90
51914;DHT22;37940;53.002;6.930;2022-08-04T18:32:42;22.10;99.90
51914;DHT22;37940;53.002;6.930;2022-08-04T18:35:08;22.00;99.90
51914;DHT22;37940;53.002;6.930;2022-08-04T18:37:38;21.80;99.90
51914;DHT22;37940;53.002;6.930;2022-08-04T18:40:05;21.70;99.90
51914;DHT22;37940;53.002;6.930;2022-08-04T18:42:32;21.60;99.90
51914;DHT22;37940;53.002;6.930;2022-08-04T18:44:57;21.50;99.90
51914;DHT22;37940;53.002;6.930;2022-08-04T18:47:23;21.40;99.90
51914;DHT22;37940;53.002;6.930;2022-08-04T18:49:56;21.30;99.90
51914;DHT22;37940;53.002;6.930;2022-08-04T18:52:22;21.30;99.90
51914;DHT22;37940;53.002;6.930;2022-08-04T18:54:48;21.20;99.90
51914;DHT22;37940;53.002;6.930;2022-08-04T18:57:23;21.00;99.90
51914;DHT22;37940;53.002;6.930;2022-08-04T18:59:49;20.90;99.90
51914;DHT22;37940;53.002;6.930;2022-08-04T19:02:15;20.90;99.90
51914;DHT22;37940;53.002;6.930;2022-08-04T19:04:42;20.80;99.90
51914;DHT22;37940;53.002;6.930;2022-08-04T19:07:09;20.70;99.90
51914;DHT22;37940;53.002;6.930;2022-08-04T19:09:43;20.60;99.90
51914;DHT22;37940;53.002;6.930;2022-08-04T19:12:09;20.60;99.90
51914;DHT22;37940;53.002;6.930;2022-08-04T19:14:35;20.50;99.90
51914;DHT22;37940;53.002;6.930;2022-08-04T19:17:01;20.50;99.90
51914;DHT22;37940;53.002;6.930;2022-08-04T19:19:27;20.40;99.90
51914;DHT22;37940;53.002;6.930;2022-08-04T19:21:52;20.40;99.90
51914;DHT22;37940;53.002;6.930;2022-08-04T19:24:18;20.30;99.90
51914;DHT22;37940;53.002;6.930;2022-08-04T19:26:44;20.30;99.90
51914;DHT22;37940;53.002;6.930;2022-08-04T19:29:10;20.20;99.90
51914;DHT22;37940;53.002;6.930;2022-08-04T19:31:35;20.20;99.90
51914;DHT22;37940;53.002;6.930;2022-08-04T19:34:01;20.10;99.90
51914;DHT22;37940;53.002;6.930;2022-08-04T19:36:28;20.00;99.90
51914;DHT22;37940;53.002;6.930;2022-08-04T19:38:56;19.90;99.90
51914;DHT22;37940;53.002;6.930;2022-08-04T19:41:22;19.90;99.90
51914;DHT22;37940;53.002;6.930;2022-08-04T19:43:47;19.80;99.90
51914;DHT22;37940;53.002;6.930;2022-08-04T19:46:14;19.80;99.90
51914;DHT22;37940;53.002;6.930;2022-08-04T19:48:40;19.70;99.90
51914;DHT22;37940;53.002;6.930;2022-08-04T19:51:07;19.70;99.90
51914;DHT22;37940;53.002;6.930;2022-08-04T19:53:32;19.60;99.90
51914;DHT22;37940;53.002;6.930;2022-08-04T19:55:58;19.60;99.90
51914;DHT22;37940;53.002;6.930;2022-08-04T19:58:25;19.50;99.90
51914;DHT22;37940;53.002;6.930;2022-08-04T20:00:51;19.50;99.90
51914;DHT22;37940;53.002;6.930;2022-08-04T20:03:17;19.40;99.90
51914;DHT22;37940;53.002;6.930;2022-08-04T20:05:43;19.40;99.90
51914;DHT22;37940;53.002;6.930;2022-08-04T20:08:09;19.40;99.90
51914;DHT22;37940;53.002;6.930;2022-08-04T20:10:36;19.30;99.90
51914;DHT22;37940;53.002;6.930;2022-08-04T20:13:02;19.30;99.90
51914;DHT22;37940;53.002;6.930;2022-08-04T20:15:28;19.30;99.90
51914;DHT22;37940;53.002;6.930;2022-08-04T20:17:54;19.20;99.90
51914;DHT22;37940;53.002;6.930;2022-08-04T20:20:20;19.20;99.90
51914;DHT22;37940;53.002;6.930;2022-08-04T20:22:46;19.10;99.90
51914;DHT22;37940;53.002;6.930;2022-08-04T20:25:12;19.10;99.90
51914;DHT22;37940;53.002;6.930;2022-08-04T20:27:38;19.10;99.90
51914;DHT22;37940;53.002;6.930;2022-08-04T20:30:05;19.00;99.90
51914;DHT22;37940;53.002;6.930;2022-08-04T20:32:31;19.00;99.90
51914;DHT22;37940;53.002;6.930;2022-08-04T20:34:57;19.00;99.90
51914;DHT22;37940;53.002;6.930;2022-08-04T20:37:24;18.90;99.90